PWSweather.com
Personal Weather Stations
Station Observations
KMIEASTT1
Tawas Bay, East Tawas, MI 48730

Tawas BayEast Tawas, MI 48730

Lat: 44.28, Lon: -83.48

Elevation: 600

Station Type: Davis VantagePro

http://www.tawasbayweather.com

High Low Average
Temperature 38.8°F3.8°C 31.6°F-0.2°C 34.5°F1.4°C
Dew Point 35.7°F2.1°C 30.1°F-1.1°C 32.8°F0.4°C
Winds 13.0 mph 20.9 kmh Calm Calm 4.0 mph S6.4 kmh S
Wind Gusts 15.0 mph24.1 kmh -- 6.0 mph9.7 kmh
Humidity 97% 86% 94%
Pressure 30.12 in1020.0 mb 29.88 in1011.9 mb -
Precipitation 0.00 in0.0 mm - -
Hour Temp Dew Point Humidity Winds Wind Gusts Pressure Precip Precip Rate Daily Precip Total
12:02 AM 31.8°F-0.1°C 30.3°F-0.9°C 94% 3.0 mph SE4.8 kmh SE 3.0 mph4.8 kmh 30.12 in1020.0 mb 0.00 in0.0 mm 0.00 in/hr0.0 mm/hr 0.00 in0.0 mm
12:15 AM 31.6°F-0.2°C 30.1°F-1.1°C 94% 2.0 mph SE3.2 kmh SE 3.0 mph4.8 kmh 30.12 in1020.0 mb 0.00 in0.0 mm 0.00 in/hr0.0 mm/hr 0.00 in0.0 mm
12:31 AM 31.8°F-0.1°C 30.5°F-0.8°C 95% 3.0 mph ESE4.8 kmh ESE 4.0 mph6.4 kmh 30.11 in1019.6 mb 0.00 in0.0 mm 0.00 in/hr0.0 mm/hr 0.00 in0.0 mm
12:47 AM 32.2°F0.1°C 30.9°F-0.6°C 95% 3.0 mph SE4.8 kmh SE 4.0 mph6.4 kmh 30.11 in1019.6 mb 0.00 in0.0 mm 0.00 in/hr0.0 mm/hr 0.00 in0.0 mm
01:02 AM 32.4°F0.2°C 30.9°F-0.6°C 94% 3.0 mph SE4.8 kmh SE 5.0 mph8.0 kmh 30.10 in1019.3 mb 0.00 in0.0 mm 0.00 in/hr0.0 mm/hr 0.00 in0.0 mm
01:17 AM 32.4°F0.2°C 31.1°F-0.5°C 95% 4.0 mph ESE6.4 kmh ESE 5.0 mph8.0 kmh 30.09 in1019.0 mb 0.00 in0.0 mm 0.00 in/hr0.0 mm/hr 0.00 in0.0 mm
01:31 AM 32.6°F0.3°C 31.3°F-0.4°C 95% 7.0 mph ESE11.3 kmh ESE 7.0 mph11.3 kmh 30.08 in1018.6 mb 0.00 in0.0 mm 0.00 in/hr0.0 mm/hr 0.00 in0.0 mm
01:45 AM 32.7°F0.4°C 31.2°F-0.4°C 94% 5.0 mph ESE8.0 kmh ESE 7.0 mph11.3 kmh 30.08 in1018.6 mb 0.00 in0.0 mm 0.00 in/hr0.0 mm/hr 0.00 in0.0 mm
02:02 AM 32.8°F0.4°C 31.3°F-0.4°C 94% 5.0 mph ESE8.0 kmh ESE 7.0 mph11.3 kmh 30.08 in1018.6 mb 0.00 in0.0 mm 0.00 in/hr0.0 mm/hr 0.00 in0.0 mm
02:16 AM 32.9°F0.5°C 31.4°F-0.3°C 94% 7.0 mph E11.3 kmh E 8.0 mph12.9 kmh 30.08 in1018.6 mb 0.00 in0.0 mm 0.00 in/hr0.0 mm/hr 0.00 in0.0 mm
02:32 AM 33.0°F0.6°C 31.5°F-0.3°C 94% 6.0 mph E9.7 kmh E 6.0 mph9.7 kmh 30.07 in1018.3 mb 0.00 in0.0 mm 0.00 in/hr0.0 mm/hr 0.00 in0.0 mm
02:45 AM 33.0°F0.6°C 31.5°F-0.3°C 94% 5.0 mph E8.0 kmh E 7.0 mph11.3 kmh 30.06 in1017.9 mb 0.00 in0.0 mm 0.00 in/hr0.0 mm/hr 0.00 in0.0 mm
03:02 AM 33.2°F0.7°C 31.7°F-0.2°C 94% 3.0 mph E4.8 kmh E 6.0 mph9.7 kmh 30.06 in1017.9 mb 0.00 in0.0 mm 0.00 in/hr0.0 mm/hr 0.00 in0.0 mm
03:16 AM 33.5°F0.8°C 32.0°F0.0°C 94% 4.0 mph ESE6.4 kmh ESE 6.0 mph9.7 kmh 30.05 in1017.6 mb 0.00 in0.0 mm 0.00 in/hr0.0 mm/hr 0.00 in0.0 mm
03:31 AM 33.5°F0.8°C 32.2°F0.1°C 95% 2.0 mph E3.2 kmh E 5.0 mph8.0 kmh 30.05 in1017.6 mb 0.00 in0.0 mm 0.00 in/hr0.0 mm/hr 0.00 in0.0 mm
03:46 AM 33.4°F0.8°C 32.1°F0.1°C 95% 1.0 mph E1.6 kmh E 3.0 mph4.8 kmh 30.04 in1017.3 mb 0.02 in0.5 mm 0.08 in/hr2.0 mm/hr 0.02 in0.5 mm
04:02 AM 33.5°F0.8°C 32.2°F0.1°C 95% 1.0 mph E1.6 kmh E 3.0 mph4.8 kmh 30.04 in1017.3 mb 0.03 in0.8 mm 0.01 in/hr0.3 mm/hr 0.03 in0.8 mm
04:16 AM 33.4°F0.8°C 32.1°F0.1°C 95% 1.0 mph E1.6 kmh E 3.0 mph4.8 kmh 30.04 in1017.3 mb 0.05 in1.3 mm 0.09 in/hr2.3 mm/hr 0.05 in1.3 mm
04:31 AM 33.4°F0.8°C 32.1°F0.1°C 95% 1.0 mph ESE1.6 kmh ESE 2.0 mph3.2 kmh 30.03 in1016.9 mb 0.06 in1.5 mm 0.04 in/hr1.0 mm/hr 0.06 in1.5 mm
04:46 AM 33.5°F0.8°C 32.2°F0.1°C 95% Calm Calm 2.0 mph3.2 kmh 30.03 in1016.9 mb 0.07 in1.8 mm 0.04 in/hr1.0 mm/hr 0.07 in1.8 mm
05:02 AM 33.7°F0.9°C 32.4°F0.2°C 95% 1.0 mph E1.6 kmh E 1.0 mph1.6 kmh 30.02 in1016.6 mb 0.06 in1.5 mm 0.00 in/hr0.0 mm/hr 0.07 in1.8 mm
05:16 AM 33.8°F1.0°C 32.5°F0.3°C 95% Calm Calm -- 30.02 in1016.6 mb 0.08 in2.0 mm 0.09 in/hr2.3 mm/hr 0.09 in2.3 mm
05:31 AM 33.6°F0.9°C 32.1°F0.1°C 94% 3.0 mph E4.8 kmh E 3.0 mph4.8 kmh 30.01 in1016.3 mb 0.08 in2.0 mm 0.00 in/hr0.0 mm/hr 0.09 in2.3 mm
05:46 AM 32.6°F0.3°C 31.3°F-0.4°C 95% 3.0 mph E4.8 kmh E 5.0 mph8.0 kmh 30.00 in1015.9 mb 0.09 in2.3 mm 0.04 in/hr1.0 mm/hr 0.10 in2.5 mm
06:02 AM 32.3°F0.2°C 31.3°F-0.4°C 96% 3.0 mph SE4.8 kmh SE 4.0 mph6.4 kmh 30.00 in1015.9 mb 0.08 in2.0 mm 0.00 in/hr0.0 mm/hr 0.10 in2.5 mm
06:15 AM 32.3°F0.2°C 31.3°F-0.4°C 96% 3.0 mph ESE4.8 kmh ESE 4.0 mph6.4 kmh 30.00 in1015.9 mb 0.10 in2.5 mm 0.09 in/hr2.3 mm/hr 0.12 in3.0 mm
06:31 AM 32.2°F0.1°C 31.2°F-0.4°C 96% 4.0 mph ESE6.4 kmh ESE 4.0 mph6.4 kmh 29.99 in1015.6 mb 0.08 in2.0 mm 0.00 in/hr0.0 mm/hr 0.12 in3.0 mm
06:46 AM 32.2°F0.1°C 31.5°F-0.3°C 97% 1.0 mph ESE1.6 kmh ESE 3.0 mph4.8 kmh 29.98 in1015.2 mb 0.09 in2.3 mm 0.04 in/hr1.0 mm/hr 0.13 in3.3 mm
07:02 AM 32.2°F0.1°C 31.5°F-0.3°C 97% 1.0 mph ESE1.6 kmh ESE 2.0 mph3.2 kmh 29.97 in1014.9 mb 0.06 in1.5 mm 0.00 in/hr0.0 mm/hr 0.13 in3.3 mm
07:16 AM 32.3°F0.2°C 31.6°F-0.2°C 97% 1.0 mph ESE1.6 kmh ESE 2.0 mph3.2 kmh 29.96 in1014.6 mb 0.06 in1.5 mm 0.00 in/hr0.0 mm/hr 0.13 in3.3 mm
07:31 AM 32.3°F0.2°C 31.6°F-0.2°C 97% Calm Calm 1.0 mph1.6 kmh 29.96 in1014.6 mb 0.02 in0.5 mm 0.00 in/hr0.0 mm/hr 0.13 in3.3 mm
07:47 AM 32.6°F0.3°C 31.8°F-0.1°C 97% Calm Calm -- 29.96 in1014.6 mb 0.02 in0.5 mm 0.00 in/hr0.0 mm/hr 0.13 in3.3 mm
08:02 AM 33.0°F0.6°C 32.2°F0.1°C 97% Calm Calm -- 29.95 in1014.2 mb 0.00 in0.0 mm 0.00 in/hr0.0 mm/hr 0.13 in3.3 mm
08:15 AM 33.7°F0.9°C 32.7°F0.4°C 96% Calm Calm -- 29.95 in1014.2 mb 0.00 in0.0 mm 0.00 in/hr0.0 mm/hr 0.13 in3.3 mm
08:31 AM 33.4°F0.8°C 32.4°F0.2°C 96% Calm Calm -- 29.95 in1014.2 mb 0.00 in0.0 mm 0.00 in/hr0.0 mm/hr 0.13 in3.3 mm
08:46 AM 32.8°F0.4°C 31.8°F-0.1°C 96% 1.0 mph ESE1.6 kmh ESE 2.0 mph3.2 kmh 29.94 in1013.9 mb 0.00 in0.0 mm 0.00 in/hr0.0 mm/hr 0.13 in3.3 mm
09:02 AM 32.7°F0.4°C 31.7°F-0.2°C 96% 1.0 mph ESE1.6 kmh ESE 2.0 mph3.2 kmh 29.94 in1013.9 mb 0.00 in0.0 mm 0.00 in/hr0.0 mm/hr 0.13 in3.3 mm
09:31 AM 32.9°F0.5°C 32.1°F0.1°C 97% 2.0 mph E3.2 kmh E 3.0 mph4.8 kmh 29.94 in1013.9 mb 0.00 in0.0 mm 0.00 in/hr0.0 mm/hr 0.13 in3.3 mm
09:46 AM 32.8°F0.4°C 32.0°F0.0°C 97% 2.0 mph SW3.2 kmh SW 3.0 mph4.8 kmh 29.94 in1013.9 mb 0.00 in0.0 mm 0.00 in/hr0.0 mm/hr 0.13 in3.3 mm
10:02 AM 32.8°F0.4°C 32.0°F0.0°C 97% 2.0 mph SW3.2 kmh SW 3.0 mph4.8 kmh 29.94 in1013.9 mb 0.00 in0.0 mm 0.00 in/hr0.0 mm/hr 0.13 in3.3 mm
10:16 AM 32.7°F0.4°C 31.9°F-0.1°C 97% 1.0 mph SW1.6 kmh SW 3.0 mph4.8 kmh 29.93 in1013.5 mb 0.00 in0.0 mm 0.00 in/hr0.0 mm/hr 0.13 in3.3 mm
10:31 AM 32.9°F0.5°C 32.1°F0.1°C 97% 2.0 mph SW3.2 kmh SW 3.0 mph4.8 kmh 29.93 in1013.5 mb 0.00 in0.0 mm 0.00 in/hr0.0 mm/hr 0.13 in3.3 mm
10:46 AM 33.6°F0.9°C 32.8°F0.4°C 97% 3.0 mph WSW4.8 kmh WSW 5.0 mph8.0 kmh 29.92 in1013.2 mb 0.00 in0.0 mm 0.00 in/hr0.0 mm/hr 0.13 in3.3 mm
11:02 AM 33.6°F0.9°C 32.8°F0.4°C 97% 3.0 mph WSW4.8 kmh WSW 3.0 mph4.8 kmh 29.92 in1013.2 mb 0.00 in0.0 mm 0.00 in/hr0.0 mm/hr 0.13 in3.3 mm
11:15 AM 33.6°F0.9°C 32.8°F0.4°C 97% 2.0 mph WSW3.2 kmh WSW 6.0 mph9.7 kmh 29.93 in1013.5 mb 0.00 in0.0 mm 0.00 in/hr0.0 mm/hr 0.13 in3.3 mm
11:31 AM 34.3°F1.3°C 33.3°F0.7°C 96% 4.0 mph WSW6.4 kmh WSW 6.0 mph9.7 kmh 29.93 in1013.5 mb 0.00 in0.0 mm 0.00 in/hr0.0 mm/hr 0.13 in3.3 mm
11:45 AM 34.9°F1.6°C 33.6°F0.9°C 95% 2.0 mph WNW3.2 kmh WNW 6.0 mph9.7 kmh 29.93 in1013.5 mb 0.00 in0.0 mm 0.00 in/hr0.0 mm/hr 0.13 in3.3 mm
12:02 PM 35.3°F1.8°C 33.8°F1.0°C 94% 5.0 mph WSW8.0 kmh WSW 8.0 mph12.9 kmh 29.93 in1013.5 mb 0.00 in0.0 mm 0.00 in/hr0.0 mm/hr 0.13 in3.3 mm
12:16 PM 35.3°F1.8°C 33.5°F0.8°C 93% 5.0 mph WSW8.0 kmh WSW 7.0 mph11.3 kmh 29.92 in1013.2 mb 0.00 in0.0 mm 0.00 in/hr0.0 mm/hr 0.13 in3.3 mm
12:31 PM 35.8°F2.1°C 33.7°F0.9°C 92% 3.0 mph WNW4.8 kmh WNW 9.0 mph14.5 kmh 29.92 in1013.2 mb 0.00 in0.0 mm 0.00 in/hr0.0 mm/hr 0.13 in3.3 mm
12:47 PM 36.5°F2.5°C 34.1°F1.2°C 91% 4.0 mph W6.4 kmh W 7.0 mph11.3 kmh 29.91 in1012.9 mb 0.00 in0.0 mm 0.00 in/hr0.0 mm/hr 0.13 in3.3 mm
01:03 PM 36.2°F2.3°C 33.8°F1.0°C 91% 7.0 mph W11.3 kmh W 13.0 mph20.9 kmh 29.92 in1013.2 mb 0.00 in0.0 mm 0.00 in/hr0.0 mm/hr 0.13 in3.3 mm
01:17 PM 36.9°F2.7°C 34.5°F1.4°C 91% 8.0 mph NW12.9 kmh NW 10.0 mph16.1 kmh 29.92 in1013.2 mb 0.00 in0.0 mm 0.00 in/hr0.0 mm/hr 0.13 in3.3 mm
01:31 PM 36.8°F2.7°C 34.2°F1.2°C 90% 9.0 mph WSW14.5 kmh WSW 11.0 mph17.7 kmh 29.91 in1012.9 mb 0.00 in0.0 mm 0.00 in/hr0.0 mm/hr 0.13 in3.3 mm
01:46 PM 37.0°F2.8°C 34.6°F1.4°C 91% 9.0 mph W14.5 kmh W 11.0 mph17.7 kmh 29.91 in1012.9 mb 0.00 in0.0 mm 0.00 in/hr0.0 mm/hr 0.13 in3.3 mm
02:02 PM 37.0°F2.8°C 34.9°F1.6°C 92% 6.0 mph W9.7 kmh W 11.0 mph17.7 kmh 29.91 in1012.9 mb 0.00 in0.0 mm 0.00 in/hr0.0 mm/hr 0.13 in3.3 mm
02:16 PM 37.4°F3.0°C 34.7°F1.5°C 90% 4.0 mph WSW6.4 kmh WSW 9.0 mph14.5 kmh 29.89 in1012.2 mb 0.00 in0.0 mm 0.00 in/hr0.0 mm/hr 0.13 in3.3 mm
02:30 PM 36.2°F2.3°C 34.1°F1.2°C 92% 6.0 mph WSW9.7 kmh WSW 8.0 mph12.9 kmh 29.89 in1012.2 mb 0.00 in0.0 mm 0.00 in/hr0.0 mm/hr 0.13 in3.3 mm
02:45 PM 35.2°F1.8°C 33.4°F0.8°C 93% 3.0 mph SW4.8 kmh SW 5.0 mph8.0 kmh 29.88 in1011.9 mb 0.00 in0.0 mm 0.00 in/hr0.0 mm/hr 0.13 in3.3 mm
03:00 PM 35.7°F2.1°C 34.2°F1.2°C 94% 6.0 mph W9.7 kmh W 8.0 mph12.9 kmh 29.89 in1012.2 mb 0.00 in0.0 mm 0.00 in/hr0.0 mm/hr 0.13 in3.3 mm
03:16 PM 37.4°F3.0°C 34.7°F1.5°C 90% 7.0 mph W11.3 kmh W 9.0 mph14.5 kmh 29.89 in1012.2 mb 0.00 in0.0 mm 0.00 in/hr0.0 mm/hr 0.13 in3.3 mm
03:30 PM 37.7°F3.2°C 35.3°F1.8°C 91% 8.0 mph WSW12.9 kmh WSW 13.0 mph20.9 kmh 29.90 in1012.5 mb 0.00 in0.0 mm 0.00 in/hr0.0 mm/hr 0.13 in3.3 mm
03:45 PM 38.7°F3.7°C 35.7°F2.1°C 89% 11.0 mph W17.7 kmh W 13.0 mph20.9 kmh 29.90 in1012.5 mb 0.00 in0.0 mm 0.00 in/hr0.0 mm/hr 0.13 in3.3 mm
04:02 PM 38.8°F3.8°C 35.6°F2.0°C 88% 9.0 mph W14.5 kmh W 11.0 mph17.7 kmh 29.90 in1012.5 mb 0.00 in0.0 mm 0.00 in/hr0.0 mm/hr 0.13 in3.3 mm
04:15 PM 38.6°F3.7°C 35.1°F1.7°C 87% 5.0 mph WSW8.0 kmh WSW 14.0 mph22.5 kmh 29.91 in1012.9 mb 0.00 in0.0 mm 0.00 in/hr0.0 mm/hr 0.13 in3.3 mm
04:31 PM 38.4°F3.6°C 35.2°F1.8°C 88% 6.0 mph W9.7 kmh W 13.0 mph20.9 kmh 29.91 in1012.9 mb 0.00 in0.0 mm 0.00 in/hr0.0 mm/hr 0.13 in3.3 mm
04:46 PM 38.3°F3.5°C 35.1°F1.7°C 88% 7.0 mph WSW11.3 kmh WSW 12.0 mph19.3 kmh 29.91 in1012.9 mb 0.00 in0.0 mm 0.00 in/hr0.0 mm/hr 0.13 in3.3 mm
05:02 PM 38.1°F3.4°C 35.2°F1.8°C 89% 4.0 mph NW6.4 kmh NW 11.0 mph17.7 kmh 29.91 in1012.9 mb 0.00 in0.0 mm 0.00 in/hr0.0 mm/hr 0.13 in3.3 mm
05:16 PM 38.2°F3.4°C 35.3°F1.8°C 89% 5.0 mph W8.0 kmh W 9.0 mph14.5 kmh 29.91 in1012.9 mb 0.00 in0.0 mm 0.00 in/hr0.0 mm/hr 0.13 in3.3 mm
05:31 PM 38.1°F3.4°C 35.2°F1.8°C 89% 5.0 mph WNW8.0 kmh WNW 8.0 mph12.9 kmh 29.92 in1013.2 mb 0.00 in0.0 mm 0.00 in/hr0.0 mm/hr 0.13 in3.3 mm
05:46 PM 38.0°F3.3°C 35.1°F1.7°C 89% 6.0 mph WSW9.7 kmh WSW 10.0 mph16.1 kmh 29.92 in1013.2 mb 0.00 in0.0 mm 0.00 in/hr0.0 mm/hr 0.13 in3.3 mm
06:02 PM 38.0°F3.3°C 34.8°F1.6°C 88% 7.0 mph WNW11.3 kmh WNW 12.0 mph19.3 kmh 29.93 in1013.5 mb 0.00 in0.0 mm 0.00 in/hr0.0 mm/hr 0.13 in3.3 mm
06:16 PM 38.1°F3.4°C 34.6°F1.4°C 87% 13.0 mph WNW20.9 kmh WNW 13.0 mph20.9 kmh 29.94 in1013.9 mb 0.00 in0.0 mm 0.00 in/hr0.0 mm/hr 0.13 in3.3 mm
06:31 PM 37.9°F3.3°C 34.1°F1.2°C 86% 7.0 mph NW11.3 kmh NW 15.0 mph24.1 kmh 29.95 in1014.2 mb 0.00 in0.0 mm 0.00 in/hr0.0 mm/hr 0.13 in3.3 mm
06:46 PM 37.5°F3.1°C 33.7°F0.9°C 86% 7.0 mph W11.3 kmh W 12.0 mph19.3 kmh 29.96 in1014.6 mb 0.00 in0.0 mm 0.00 in/hr0.0 mm/hr 0.13 in3.3 mm
07:02 PM 37.3°F2.9°C 32.9°F0.5°C 84% 5.0 mph NW8.0 kmh NW 12.0 mph19.3 kmh 29.97 in1014.9 mb 0.00 in0.0 mm 0.00 in/hr0.0 mm/hr 0.13 in3.3 mm
07:17 PM 36.6°F2.6°C 31.9°F-0.1°C 83% 13.0 mph WNW20.9 kmh WNW 13.0 mph20.9 kmh 29.97 in1014.9 mb 0.00 in0.0 mm 0.00 in/hr0.0 mm/hr 0.13 in3.3 mm
07:30 PM 36.1°F2.3°C 31.5°F-0.3°C 83% 6.0 mph NW9.7 kmh NW 8.0 mph12.9 kmh 29.98 in1015.2 mb 0.00 in0.0 mm 0.00 in/hr0.0 mm/hr 0.13 in3.3 mm
07:45 PM 35.7°F2.1°C 31.1°F-0.5°C 83% 7.0 mph W11.3 kmh W 13.0 mph20.9 kmh 29.99 in1015.6 mb 0.00 in0.0 mm 0.00 in/hr0.0 mm/hr 0.13 in3.3 mm
08:02 PM 35.1°F1.7°C 30.8°F-0.7°C 84% 6.0 mph W9.7 kmh W 7.0 mph11.3 kmh 29.99 in1015.6 mb 0.00 in0.0 mm 0.00 in/hr0.0 mm/hr 0.13 in3.3 mm
08:17 PM 34.8°F1.6°C 30.5°F-0.8°C 84% 4.0 mph WNW6.4 kmh WNW 7.0 mph11.3 kmh 29.99 in1015.6 mb 0.00 in0.0 mm 0.00 in/hr0.0 mm/hr 0.13 in3.3 mm
08:31 PM 34.4°F1.3°C 30.4°F-0.9°C 85% 3.0 mph W4.8 kmh W 4.0 mph6.4 kmh 30.00 in1015.9 mb 0.00 in0.0 mm 0.00 in/hr0.0 mm/hr 0.13 in3.3 mm
08:46 PM 34.1°F1.2°C 30.4°F-0.9°C 86% 4.0 mph WSW6.4 kmh WSW 6.0 mph9.7 kmh 30.00 in1015.9 mb 0.00 in0.0 mm 0.00 in/hr0.0 mm/hr 0.13 in3.3 mm
09:02 PM 33.3°F0.7°C 30.4°F-0.9°C 89% 4.0 mph WSW6.4 kmh WSW 5.0 mph8.0 kmh 30.00 in1015.9 mb 0.00 in0.0 mm 0.00 in/hr0.0 mm/hr 0.13 in3.3 mm
09:16 PM 33.0°F0.6°C 30.4°F-0.9°C 90% 4.0 mph WSW6.4 kmh WSW 6.0 mph9.7 kmh 30.01 in1016.3 mb 0.00 in0.0 mm 0.00 in/hr0.0 mm/hr 0.13 in3.3 mm
09:31 PM 33.0°F0.6°C 30.4°F-0.9°C 90% 5.0 mph SW8.0 kmh SW 6.0 mph9.7 kmh 30.01 in1016.3 mb 0.00 in0.0 mm 0.00 in/hr0.0 mm/hr 0.13 in3.3 mm
09:45 PM 33.0°F0.6°C 30.1°F-1.1°C 89% 8.0 mph WSW12.9 kmh WSW 9.0 mph14.5 kmh 30.01 in1016.3 mb 0.00 in0.0 mm 0.00 in/hr0.0 mm/hr 0.13 in3.3 mm
10:02 PM 32.6°F0.3°C 29.5°F-1.4°C 88% 5.0 mph WSW8.0 kmh WSW 10.0 mph16.1 kmh 30.01 in1016.3 mb 0.00 in0.0 mm 0.00 in/hr0.0 mm/hr 0.13 in3.3 mm
10:16 PM 32.4°F0.2°C 29.3°F-1.5°C 88% 6.0 mph NW9.7 kmh NW 8.0 mph12.9 kmh 30.01 in1016.3 mb 0.00 in0.0 mm 0.00 in/hr0.0 mm/hr 0.13 in3.3 mm
10:31 PM 32.3°F0.2°C 29.2°F-1.6°C 88% 4.0 mph WSW6.4 kmh WSW 7.0 mph11.3 kmh 30.01 in1016.3 mb 0.00 in0.0 mm 0.00 in/hr0.0 mm/hr 0.13 in3.3 mm
10:46 PM 32.1°F0.1°C 29.0°F-1.7°C 88% 4.0 mph W6.4 kmh W 7.0 mph11.3 kmh 30.01 in1016.3 mb 0.00 in0.0 mm 0.00 in/hr0.0 mm/hr 0.13 in3.3 mm
11:02 PM 31.8°F-0.1°C 28.7°F-1.8°C 88% 4.0 mph WSW6.4 kmh WSW 6.0 mph9.7 kmh 30.01 in1016.3 mb 0.00 in0.0 mm 0.00 in/hr0.0 mm/hr 0.13 in3.3 mm
11:16 PM 31.6°F-0.2°C 28.5°F-1.9°C 88% 4.0 mph WSW6.4 kmh WSW 5.0 mph8.0 kmh 30.02 in1016.6 mb 0.00 in0.0 mm 0.00 in/hr0.0 mm/hr 0.13 in3.3 mm
11:31 PM 31.5°F-0.3°C 28.4°F-2.0°C 88% 4.0 mph WSW6.4 kmh WSW 6.0 mph9.7 kmh 30.01 in1016.3 mb 0.00 in0.0 mm 0.00 in/hr0.0 mm/hr 0.13 in3.3 mm
11:46 PM 31.2°F-0.4°C 28.3°F-2.1°C 89% 4.0 mph WSW6.4 kmh WSW 6.0 mph9.7 kmh 30.01 in1016.3 mb 0.00 in0.0 mm 0.00 in/hr0.0 mm/hr 0.13 in3.3 mm